10 agosto 2022

Tempo Codice Tempo metereologico Temp. Vista Base nuvolosa Vento METAR/SPECI
11:52 pm
V
79 °F 10 mi 14.000 ft 250° 250° 5 kt METAR KCLT 110352Z 25005KT 10SM FEW038 BKN140 OVC250 26/22 A3014 RMK SLP195 FRQ LTG DSNT SE CB DSNT SE T02560217
10:52 pm
V
79 °F 10 mi 25.000 ft 230° 230° 5 kt METAR KCLT 110252Z 23005KT 10SM FEW038 FEW140 SCT180 OVC250 26/22 A3014 RMK SLP194 CONS LTG DSNT S CB DSNT S T02560217 51016
9:52 pm
V
81 °F 10 mi 24.000 ft 230° 230° 6 kt METAR KCLT 110152Z COR 23006KT 10SM SCT038 SCT150 OVC240 27/21 A3013 RMK SLP192 CONS LTG DSNT S-SW CB DSNT S-SW T02670211
8:52 pm
V
81 °F 10 mi 25.000 ft 220° 220° 7 kt METAR KCLT 110052Z 22007KT 10SM FEW040CB FEW110 BKN250 27/21 A3010 RMK SLP183 CB N MOV NE TCU DSNT NE T02670211
7:52 pm
V
82 °F 10 mi 25.000 ft 220° 220° 7 kt METAR KCLT 102352Z 22007KT 10SM FEW040 FEW110 FEW170 BKN250 28/22 A3009 RMK SLP179 60000 T02780217 10328 20267 55004
6:52 pm
V
81 °F 10 mi 25.000 ft Var 000° 0 kt METAR KCLT 102252Z 00000KT 10SM FEW042 FEW110 SCT160 BKN250 27/22 A3008 RMK SLP177 T02670217
5:52 pm
V
81 °F 10 mi 19.000 ft 350° 350° 9 kt METAR KCLT 102152Z 35009KT 10SM FEW042 FEW110 FEW140 BKN190 27/23 A3009 RMK RAE02 SLP181 CB DSNT E P0000 T02780228
4:52 pm
V
82 °F 10 mi 14.000 ft Var 000° 0 kt METAR KCLT 102052Z 00000KT 10SM -RA FEW038TCU SCT110 BKN140 BKN200 28/22 A3010 RMK RAB40 TSE42 SLP183 TS MOV NE CB DSNT NE-E MOV E TCU N P0000 60000 T02830217 56015
4:42 pm
V
82 °F 10 mi 14.000 ft 330° 330° 4 kt METAR KCLT 102042Z 33004KT 10SM -RA FEW038TCU SCT110 BKN140 BKN200 28/21 A3010 RMK RAB40 TSE42 TS MOV NE TCU NE P0000 T02830211
3:52 pm
V
82 °F 10 mi 11.000 ft Var Var 3 kt METAR KCLT 101952Z VRB03KT 10SM TS SCT045CB BKN110 BKN250 28/21 A3010 RMK SLP185 FRQ LTGICCG NE-SE TS NE-SE MOV NE TCU ALQDS T02830206
2:52 pm
V
90 °F 10 mi 25.000 ft Var Var 5 kt METAR KCLT 101852Z VRB05KT 10SM TS SCT040CB BKN250 32/22 A3011 RMK TSB35 SLP187 OCNL LTGICCG N TS N MOV NE TCU ALQDS T03220222
2:39 pm
V
88 °F 10 mi 25.000 ft 220° 220° 9 - 15 kt METAR KCLT 101839Z 22009G15KT 10SM TS SCT040CB BKN250 31/22 A3012 RMK TSB35 FRQ LTGICCG N TS N MOV NE TCU DSNT S-NW T03110217
1:52 pm
V
91 °F 10 mi 25.000 ft 250° 250° 9 - 14 kt METAR KCLT 101752Z 25009G14KT 10SM SCT040TCU BKN250 33/22 A3014 RMK SLP197 TCU SW-N T03280222 10328 20244 58014 $
12:52 pm
V
88 °F 10 mi 25.000 ft 280° 280° 7 kt METAR KCLT 101652Z 28007KT 10SM SCT034 BKN250 31/22 A3017 RMK SLP205 TCU DSNT W-N T03110222 $
11:52 am
V
86 °F 10 mi 25.000 ft 250° 250° 7 kt METAR KCLT 101552Z 25007KT 10SM SCT030 SCT120 BKN250 30/23 A3018 RMK SLP209 TCU DSNT NW T03000228 $
10:52 am
V
84 °F 10 mi - 250° 250° 6 kt METAR KCLT 101452Z 25006KT 10SM FEW017 FEW120 SCT200 SCT250 29/22 A3019 RMK SLP211 T02890222 50004
9:52 am
V
82 °F 10 mi - 240° 240° 5 kt METAR KCLT 101352Z 24005KT 10SM FEW010 FEW110 SCT200 SCT250 28/23 A3019 RMK SLP212 T02780228
8:52 am
V
79 °F 10 mi 25.000 ft 240° 240° 6 kt METAR KCLT 101252Z 24006KT 10SM SCT110 SCT200 BKN250 26/22 A3019 RMK SLP211 T02610217
7:52 am
V
75 °F 10 mi 25.000 ft 220° 220° 4 kt METAR KCLT 101152Z 22004KT 10SM FEW130 SCT200 BKN250 24/21 A3017 RMK SLP208 T02440211 10244 20222 53013
6:52 am
V
72 °F 10 mi - Var 000° 0 kt METAR KCLT 101052Z 00000KT 10SM FEW200 SCT250 22/21 A3016 RMK SLP204 T02220206
5:52 am
V
73 °F 10 mi 25.000 ft Var 000° 0 kt METAR KCLT 100952Z 00000KT 10SM BKN250 23/21 A3014 RMK SLP196 T02280211
4:52 am
V
73 °F 10 mi - 180° 180° 6 kt METAR KCLT 100852Z 18006KT 10SM FEW250 23/21 A3014 RMK SLP196 T02280206 55000
3:52 am
V
73 °F 10 mi - 180° 180° 4 kt METAR KCLT 100752Z 18004KT 10SM FEW250 23/21 A3013 RMK SLP191 T02280206
2:52 am
V
75 °F 10 mi - 270° 270° 3 kt METAR KCLT 100652Z 27003KT 10SM SCT250 24/21 A3012 RMK SLP189 T02390206
1:52 am
V
75 °F 10 mi - 240° 240° 5 kt METAR KCLT 100552Z 24005KT 10SM FEW250 24/21 A3014 RMK SLP195 T02440211 10283 20244 50002
12:52 am
V
77 °F 10 mi - 240° 240° 4 kt METAR KCLT 100452Z 24004KT 10SM FEW250 25/21 A3014 RMK SLP197 T02500211 403330228

9 agosto 2022

Tempo Codice Tempo metereologico Temp. Vista Base nuvolosa Vento METAR/SPECI
11:52 pm
V
79 °F 10 mi - 250° 250° 3 kt METAR KCLT 100352Z 25003KT 10SM FEW055 FEW110 SCT250 26/21 A3014 RMK SLP195 T02610211
10:52 pm
V
79 °F 10 mi - 210° 210° 3 kt METAR KCLT 100252Z 21003KT 10SM FEW055 SCT240 26/23 A3013 RMK SLP193 T02610233 53018
9:52 pm
V
81 °F 10 mi - Var 000° 0 kt METAR KCLT 100152Z 00000KT 10SM FEW050 SCT240 27/23 A3011 RMK SLP185 T02670228
8:52 pm
V
81 °F 10 mi 25.000 ft 260° 260° 4 kt METAR KCLT 100052Z 26004KT 10SM FEW100 BKN250 27/22 A3009 RMK SLP177 T02720222
7:52 pm
V
84 °F 10 mi 25.000 ft 220° 220° 4 kt METAR KCLT 092352Z 22004KT 10SM FEW045 FEW100 BKN250 29/22 A3008 RMK SLP175 CB DSNT N-NE T02890222 10333 20272 55001
6:52 pm
V
86 °F 10 mi 23.000 ft 250° 250° 6 kt METAR KCLT 092252Z 25006KT 10SM FEW048 FEW100 BKN230 30/21 A3007 RMK SLP172 CB DSNT E AND W AND NW-N TCU NE AND E T03000211
5:52 pm
V
88 °F 10 mi 19.000 ft 230° 230° 8 kt METAR KCLT 092152Z 23008KT 10SM FEW048 FEW100 BKN190 BKN250 31/22 A3008 RMK SLP177 CB DSNT E AND W-NW TCU DSNT ALQDS T03060217 $
4:52 pm
V
82 °F 10 mi 20.000 ft 210° 210° 8 kt METAR KCLT 092052Z 21008KT 10SM FEW047TCU SCT080 SCT110 BKN200 28/22 A3008 RMK TSB36E52 SLP177 TS MOV NE CB DSNT N-NE AND W-NW TCU NE T02830222 56011
3:52 pm
V
91 °F 10 mi - 240° 240° 9 - 15 kt METAR KCLT 091952Z 24009G15KT 10SM TS SCT047CB SCT250 33/22 A3009 RMK TSB36 SLP179 OCNL LTGICCG S-SW TS S-SW MOV NE CB DSNT N-NE TCU W-NW T03330217
3:39 pm
V
91 °F 10 mi - 220° 220° 9 kt METAR KCLT 091939Z 22009KT 10SM TS SCT047CB SCT250 33/22 A3008 RMK TSB36 FRQ LTGICCG S-SW TS S-SW MOV NE CB DSNT N T03330217
2:52 pm
V
90 °F 10 mi - Var Var 6 kt METAR KCLT 091852Z VRB06KT 10SM SCT045TCU 32/22 A3010 RMK SLP182 TCU S-W AND DSNT NW-NE T03220217
1:52 pm
V
90 °F 10 mi - 240° 240° 7 kt METAR KCLT 091752Z 24007KT 10SM SCT040 32/22 A3011 RMK SLP187 CB DSNT SW TCU DSNT NW-NE T03170217 10322 20239 58012
12:52 pm
V
90 °F 10 mi 3.400 ft 220° 220° 7 kt METAR KCLT 091652Z 22007KT 10SM BKN034 32/23 A3013 RMK SLP194 T03170228
11:52 am
V
88 °F 10 mi - 230° 230° 6 kt METAR KCLT 091552Z 23006KT 10SM SCT027 SCT250 31/22 A3014 RMK SLP196 T03060222
10:52 am
V
84 °F 10 mi - 220° 220° 6 kt METAR KCLT 091452Z 22006KT 10SM FEW020 FEW250 29/23 A3015 RMK SLP199 T02890228 51005
9:52 am
V
81 °F 10 mi - 240° 240° 5 kt METAR KCLT 091352Z 24005KT 10SM FEW010 FEW250 27/22 A3015 RMK SLP198 T02720222
8:52 am
V
79 °F 10 mi - 210° 210° 6 kt METAR KCLT 091252Z 21006KT 10SM FEW008 FEW250 26/22 A3014 RMK SLP196 T02610222
7:52 am
V
75 °F 10 mi - 170° 170° 4 kt METAR KCLT 091152Z 17004KT 10SM FEW150 FEW250 24/22 A3013 RMK SLP193 T02390222 10250 20228 53008
6:52 am
V
73 °F 10 mi - 180° 180° 3 kt METAR KCLT 091052Z 18003KT 10SM CLR 23/21 A3011 RMK SLP187 T02280211 $
5:52 am
V
73 °F 10 mi - 190° 190° 4 kt METAR KCLT 090952Z 19004KT 10SM CLR 23/21 A3010 RMK SLP183 T02280211 $
4:52 am
V
73 °F 10 mi - 200° 200° 4 kt METAR KCLT 090852Z 20004KT 10SM CLR 23/22 A3011 RMK SLP185 T02280217 55002 $
3:52 am
V
73 °F 10 mi - 210° 210° 5 kt METAR KCLT 090752Z 21005KT 10SM CLR 23/22 A3011 RMK SLP185 T02330217 $
2:52 am
V
75 °F 10 mi 9.500 ft 230° 230° 5 kt METAR KCLT 090652Z 23005KT 10SM BKN095 BKN250 24/22 A3011 RMK SLP186 T02390217 $
1:52 am
V
77 °F 10 mi 9.000 ft 210° 210° 5 kt METAR KCLT 090552Z 21005KT 10SM OVC090 25/22 A3012 RMK SLP188 T02500217 10289 20244 50001 $
12:52 am
V
77 °F 10 mi 25.000 ft 200° 200° 7 kt METAR KCLT 090452Z 20007KT 10SM FEW090 BKN250 25/22 A3013 RMK SLP191 T02500217 403390222 $

8 agosto 2022

Tempo Codice Tempo metereologico Temp. Vista Base nuvolosa Vento METAR/SPECI
11:52 pm
V
77 °F 10 mi - 200° 200° 5 kt METAR KCLT 090352Z 20005KT 10SM FEW090 SCT250 25/22 A3012 RMK SLP190 T02500217 $
10:52 pm
V
79 °F 10 mi - 200° 200° 7 kt METAR KCLT 090252Z 20007KT 10SM FEW090 SCT250 26/22 A3011 RMK SLP187 T02610217 53016 $
9:52 pm
V
81 °F 10 mi 25.000 ft 170° 170° 10 kt METAR KCLT 090152Z 17010KT 10SM FEW050 FEW120 BKN250 27/22 A3009 RMK SLP178 T02670217 $
8:52 pm
V
82 °F 10 mi 11.000 ft 200° 200° 4 kt METAR KCLT 090052Z 20004KT 10SM FEW050 SCT090 BKN110 BKN200 28/23 A3007 RMK SLP172 OCNL LTG DSNT SE CB DSNT N AND SE TCU DSNT E T02780228 $
Dati più vecchi

Noi e le terze parti seguiamo il tuo comportamento in internet sul nostro sito web con i cookie. Se continui, riteniamo che tu sia d'accordo con la nostra politica sui cookie. Per saperne di più